createdAt,value
2023-04-14T00:03:20.686Z,97407.53
2023-04-14T00:08:22.765Z,97399.13
2023-04-14T00:13:24.533Z,97394.28
2023-04-14T00:18:26.544Z,97398.25
2023-04-14T00:23:28.502Z,97397.00
2023-04-14T00:28:30.374Z,97403.75
2023-04-14T00:33:32.237Z,97398.13
2023-04-14T00:38:36.594Z,97397.31
2023-04-14T00:43:38.612Z,97398.47
2023-04-14T00:48:40.521Z,97396.88
2023-04-14T00:53:42.851Z,97397.25
2023-04-14T00:58:45.273Z,97402.00
2023-04-14T01:03:48.096Z,97404.78
2023-04-14T01:08:50.705Z,97403.16
2023-04-14T01:14:11.812Z,97402.34
2023-04-14T01:19:46.063Z,97411.13
2023-04-14T01:25:17.082Z,97413.09
2023-04-14T01:30:37.825Z,97413.28
2023-04-14T01:35:50.874Z,97416.25
2023-04-14T01:40:57.469Z,97414.63
2023-04-14T01:46:07.166Z,97437.00
2023-04-14T01:51:10.683Z,97430.19
2023-04-14T01:56:15.779Z,97413.66
2023-04-14T02:01:20.153Z,97404.88
2023-04-14T02:06:24.340Z,97409.09
2023-04-14T02:11:28.093Z,97402.09
2023-04-14T02:16:30.451Z,97392.09
2023-04-14T02:21:35.444Z,97394.06
2023-04-14T02:26:44.249Z,97396.03
2023-04-14T02:32:11.920Z,97388.66
2023-04-14T02:37:22.004Z,97390.63
2023-04-14T02:42:27.848Z,97396.00
2023-04-14T02:47:33.447Z,97385.00
2023-04-14T02:52:37.098Z,97392.97
2023-04-14T02:57:40.150Z,97404.13
2023-04-14T03:02:45.409Z,97398.94
2023-04-14T03:07:47.955Z,97392.97
2023-04-14T03:12:53.425Z,97400.75
2023-04-14T03:17:58.952Z,97400.75
2023-04-14T03:23:05.398Z,97402.72
2023-04-14T03:28:16.061Z,97400.47
2023-04-14T03:33:29.261Z,97398.06
2023-04-14T03:38:34.679Z,97404.41
2023-04-14T03:43:38.394Z,97405.59
2023-04-14T03:48:46.703Z,97395.28
2023-04-14T03:53:52.020Z,97370.97
2023-04-14T03:58:57.232Z,97373.22
2023-04-14T04:04:03.065Z,97393.41
2023-04-14T04:09:07.548Z,97378.59
2023-04-14T04:14:10.904Z,97378.94
2023-04-14T04:19:16.018Z,97372.50
2023-04-14T04:24:22.209Z,97369.47
2023-04-14T04:29:27.218Z,97374.03
2023-04-14T04:34:32.468Z,97373.84
2023-04-14T04:39:35.075Z,97375.09
2023-04-14T04:44:37.584Z,97387.69
2023-04-14T04:49:39.666Z,97392.53
2023-04-14T04:54:41.798Z,97408.69
2023-04-14T04:59:44.018Z,97410.28
2023-04-14T05:04:45.928Z,97412.09
2023-04-14T05:09:47.804Z,97419.69
2023-04-14T05:14:49.684Z,97424.50
2023-04-14T05:19:51.718Z,97422.72
2023-04-14T05:24:53.781Z,97420.13
2023-04-14T05:29:55.624Z,97417.53
2023-04-14T05:34:57.968Z,97422.91
2023-04-14T05:39:59.820Z,97424.22
2023-04-14T05:45:01.811Z,97425.38
2023-04-14T05:50:04.363Z,97416.19
2023-04-14T05:55:07.276Z,97419.13
2023-04-14T06:00:10.823Z,97419.13
2023-04-14T06:05:15.775Z,97419.13
2023-04-14T06:10:17.695Z,97414.41
2023-04-14T06:15:19.644Z,97401.63
2023-04-14T06:20:22.024Z,97400.47
2023-04-14T06:25:24.275Z,97402.06
2023-04-14T06:30:28.580Z,97402.69
2023-04-14T06:35:34.004Z,97392.53
2023-04-14T06:40:36.106Z,97394.56
2023-04-14T06:45:38.118Z,97383.41
2023-04-14T06:50:40.306Z,97390.66
2023-04-14T06:55:43.475Z,97377.16
2023-04-14T07:00:45.292Z,97367.88
2023-04-14T07:05:47.239Z,97382.59
2023-04-14T07:10:49.059Z,97376.44
2023-04-14T07:15:50.919Z,97379.66
2023-04-14T07:20:54.237Z,97376.25
2023-04-14T07:25:58.464Z,97379.56
2023-04-14T07:31:08.083Z,97379.75
2023-04-14T07:36:09.992Z,97380.56
2023-04-14T07:41:11.898Z,97385.09
2023-04-14T07:46:13.755Z,97394.22
2023-04-14T07:51:15.716Z,97407.81
2023-04-14T07:56:17.582Z,97404.41
2023-04-14T08:01:19.618Z,97396.00
2023-04-14T08:06:21.545Z,97388.22
2023-04-14T08:11:23.379Z,97389.41
2023-04-14T08:16:25.420Z,97385.03
2023-04-14T08:21:27.857Z,97382.16
2023-04-14T08:26:29.960Z,97376.16
2023-04-14T08:31:33.256Z,97381.81
2023-04-14T08:36:35.150Z,97378.22
2023-04-14T08:41:39.176Z,97387.34
2023-04-14T08:46:43.122Z,97379.75
2023-04-14T08:51:45.880Z,97377.78
2023-04-14T08:56:50.335Z,97364.19
2023-04-14T09:01:57.233Z,97360.19
2023-04-14T09:07:04.268Z,97360.91
2023-04-14T09:12:07.169Z,97361.59
2023-04-14T09:17:09.747Z,97362.94
2023-04-14T09:22:12.072Z,97355.16
2023-04-14T09:27:14.290Z,97350.97
2023-04-14T09:32:16.394Z,97375.63
2023-04-14T09:37:21.452Z,97369.81
2023-04-14T09:42:42.816Z,97367.84
2023-04-14T09:47:45.030Z,97375.00
2023-04-14T09:52:49.369Z,97370.50
2023-04-14T09:57:52.004Z,97364.78
2023-04-14T10:02:58.063Z,97371.75
2023-04-14T10:08:05.458Z,97355.06
2023-04-14T10:13:07.729Z,97344.69
2023-04-14T10:18:09.901Z,97356.66
2023-04-14T10:23:12.507Z,97347.38
2023-04-14T10:28:16.235Z,97351.41
2023-04-14T10:33:19.076Z,97347.84
2023-04-14T10:38:21.036Z,97350.97
2023-04-14T10:43:28.521Z,97353.91
2023-04-14T10:48:39.803Z,97343.72
2023-04-14T10:53:47.460Z,97348.28
2023-04-14T10:58:56.993Z,97344.88
2023-04-14T11:04:21.035Z,97339.69
2023-04-14T11:09:34.873Z,97331.31
2023-04-14T11:14:37.469Z,97325.94
2023-04-14T11:19:40.285Z,97319.44
2023-04-14T11:24:43.718Z,97310.06
2023-04-14T11:29:49.088Z,97317.56
2023-04-14T11:34:51.474Z,97310.59
2023-04-14T11:39:53.498Z,97303.28
2023-04-14T11:44:58.731Z,97306.22
2023-04-14T11:50:05.457Z,97292.03
2023-04-14T11:55:07.825Z,97290.25
2023-04-14T12:00:12.928Z,97284.91
2023-04-14T12:05:30.247Z,97278.28
2023-04-14T12:10:34.298Z,97273.91
2023-04-14T12:15:39.617Z,97274.72
2023-04-14T12:21:02.576Z,97276.16
2023-04-14T12:26:10.867Z,97269.19
2023-04-14T12:31:12.871Z,97263.19
2023-04-14T12:36:15.393Z,97256.41
2023-04-14T12:41:24.425Z,97256.06
2023-04-14T12:46:26.803Z,97254.53
2023-04-14T12:51:28.820Z,97250.63
2023-04-14T12:56:34.027Z,97249.81
2023-04-14T13:01:36.614Z,97252.41
2023-04-14T13:06:39.101Z,97250.63
2023-04-14T13:11:41.110Z,97245.25
2023-04-14T13:16:43.274Z,97239.63
2023-04-14T13:21:45.398Z,97241.59
2023-04-14T13:26:47.627Z,97229.81
2023-04-14T13:31:49.685Z,97224.66
2023-04-14T13:36:51.840Z,97221.25
2023-04-14T13:41:53.848Z,97221.06
2023-04-14T13:46:56.286Z,97218.31
2023-04-14T13:52:01.265Z,97215.53
2023-04-14T13:57:03.626Z,97227.13
2023-04-14T14:02:06.730Z,97225.16
2023-04-14T14:07:08.669Z,97227.94
2023-04-14T14:12:12.292Z,97228.56
2023-04-14T14:17:14.308Z,97230.44
2023-04-14T14:22:16.372Z,97230.06
2023-04-14T14:27:18.336Z,97235.06
2023-04-14T14:32:20.537Z,97232.47
2023-04-14T14:37:23.307Z,97243.19
2023-04-14T14:42:26.133Z,97238.38
2023-04-14T14:47:29.259Z,97238.38
2023-04-14T14:52:32.827Z,97241.78
2023-04-14T14:57:34.867Z,97237.94
2023-04-14T15:02:37.142Z,97237.13
2023-04-14T15:07:39.771Z,97239.91
2023-04-14T15:12:41.647Z,97238.91
2023-04-14T15:17:43.461Z,97243.28
2023-04-14T15:22:45.637Z,97245.53
2023-04-14T15:27:47.785Z,97242.75
2023-04-14T15:32:51.237Z,97244.72
2023-04-14T15:37:53.209Z,97247.50
2023-04-14T15:42:57.209Z,97255.44
2023-04-14T15:47:59.249Z,97255.25
2023-04-14T15:53:01.086Z,97256.88
2023-04-14T15:58:05.929Z,97255.25
2023-04-14T16:03:08.331Z,97258.66
2023-04-14T16:08:10.979Z,97257.50
2023-04-14T16:13:14.888Z,97256.69
2023-04-14T16:18:16.755Z,97253.66
2023-04-14T16:23:19.060Z,97250.25
2023-04-14T16:28:22.978Z,97254.00
2023-04-14T16:33:24.764Z,97251.59
2023-04-14T16:38:27.185Z,97246.25
2023-04-14T16:43:30.811Z,97244.28
2023-04-14T16:48:33.402Z,97241.06
2023-04-14T16:53:36.964Z,97248.22
2023-04-14T16:58:39.033Z,97249.81
2023-04-14T17:03:41.074Z,97247.75
2023-04-14T17:08:43.110Z,97248.13
2023-04-14T17:13:44.898Z,97246.69
2023-04-14T17:18:48.502Z,97252.56
2023-04-14T17:23:50.437Z,97244.53
2023-04-14T17:28:52.728Z,97254.63
2023-04-14T17:33:55.104Z,97248.19
2023-04-14T17:38:57.091Z,97257.66
2023-04-14T17:43:59.062Z,97258.81
2023-04-14T17:49:04.341Z,97245.41
2023-04-14T17:54:06.315Z,97252.38
2023-04-14T17:59:08.294Z,97254.16
2023-04-14T18:04:11.153Z,97255.13
2023-04-14T18:09:13.183Z,97251.91
2023-04-14T18:14:15.486Z,97255.50
2023-04-14T18:19:17.298Z,97261.47
2023-04-14T18:29:24.635Z,97262.63
2023-04-14T18:34:27.404Z,97259.41
2023-04-14T18:39:35.810Z,97268.16
2023-04-14T18:44:37.962Z,97265.72
2023-04-14T18:49:40.510Z,97259.59
2023-04-14T18:54:43.007Z,97256.03
2023-04-14T18:59:44.814Z,97258.59
2023-04-14T19:04:46.752Z,97261.53
2023-04-14T19:09:49.234Z,97260.56
2023-04-14T19:14:51.060Z,97255.75
2023-04-14T19:19:52.992Z,97252.34
2023-04-14T19:24:56.285Z,97250.91
2023-04-14T19:29:58.209Z,97237.00
2023-04-14T19:35:00.518Z,97249.13
2023-04-14T19:40:06.616Z,97249.75
2023-04-14T19:45:10.295Z,97236.84
2023-04-14T19:50:12.576Z,97237.00
2023-04-14T19:55:15.858Z,97231.03
2023-04-14T20:00:17.961Z,97234.59
2023-04-14T20:05:20.359Z,97227.00
2023-04-14T20:10:22.456Z,97225.56
2023-04-14T20:15:25.633Z,97223.16
2023-04-14T20:20:28.690Z,97219.16
2023-04-14T20:25:31.061Z,97216.75
2023-04-14T20:30:32.880Z,97213.69
2023-04-14T20:35:36.483Z,97196.13
2023-04-14T20:40:38.690Z,97198.88
2023-04-14T20:45:40.631Z,97195.69
2023-04-14T20:50:44.577Z,97186.13
2023-04-14T20:55:46.580Z,97176.78
2023-04-14T21:00:49.277Z,97180.97
2023-04-14T21:05:51.456Z,97191.13
2023-04-14T21:11:15.738Z,97186.13
2023-04-14T21:16:16.546Z,97197.28
2023-04-14T21:21:18.388Z,97193.72
2023-04-14T21:26:20.280Z,97194.34
2023-04-14T21:31:22.100Z,97194.69
2023-04-14T21:36:24.556Z,97191.13
2023-04-14T21:41:26.565Z,97197.28
2023-04-14T21:46:28.665Z,97190.16
2023-04-14T21:51:30.583Z,97189.97
2023-04-14T21:56:32.872Z,97184.97
2023-04-14T22:01:36.648Z,97178.03
2023-04-14T22:06:40.787Z,97175.00
2023-04-14T22:11:42.663Z,97173.38
2023-04-14T22:16:44.540Z,97170.16
2023-04-14T22:21:46.456Z,97171.94
2023-04-14T22:26:48.295Z,97168.56
2023-04-14T22:31:50.578Z,97158.41
2023-04-14T22:36:52.533Z,97161.34
2023-04-14T22:41:54.394Z,97153.13
2023-04-14T22:46:56.343Z,97155.09
2023-04-14T22:51:58.105Z,97141.72
2023-04-14T22:57:00.053Z,97138.63
2023-04-14T23:02:02.343Z,97148.34
2023-04-14T23:07:05.177Z,97132.38
2023-04-14T23:12:07.260Z,97131.75
2023-04-14T23:17:09.179Z,97127.56
2023-04-14T23:22:11.012Z,97125.97
2023-04-14T23:27:13.092Z,97127.75
2023-04-14T23:32:14.951Z,97125.34
2023-04-14T23:37:17.382Z,97124.72
2023-04-14T23:42:19.425Z,97110.34
2023-04-14T23:47:22.431Z,97111.34
2023-04-14T23:52:24.261Z,97109.91
2023-04-14T23:57:27.521Z,97099.56
